sensor_id;sensor_type;location;lat;lon;timestamp;P1;durP1;ratioP1;P2;durP2;ratioP2
61915;SDS011;47868;51.326;6.550;2024-03-02T00:00:14;5.97;;;2.47;;
61915;SDS011;47868;51.326;6.550;2024-03-02T00:02:40;4.60;;;2.00;;
61915;SDS011;47868;51.326;6.550;2024-03-02T00:05:07;4.43;;;1.80;;
61915;SDS011;47868;51.326;6.550;2024-03-02T00:07:33;6.22;;;2.20;;
61915;SDS011;47868;51.326;6.550;2024-03-02T00:09:59;3.63;;;2.13;;
61915;SDS011;47868;51.326;6.550;2024-03-02T00:12:25;3.08;;;2.08;;
61915;SDS011;47868;51.326;6.550;2024-03-02T00:14:51;1.85;;;1.70;;
61915;SDS011;47868;51.326;6.550;2024-03-02T00:17:21;4.65;;;2.30;;
61915;SDS011;47868;51.326;6.550;2024-03-02T00:19:50;2.30;;;1.67;;
61915;SDS011;47868;51.326;6.550;2024-03-02T00:22:17;3.65;;;1.88;;
61915;SDS011;47868;51.326;6.550;2024-03-02T00:24:43;2.10;;;1.95;;
61915;SDS011;47868;51.326;6.550;2024-03-02T00:27:09;2.13;;;1.92;;
61915;SDS011;47868;51.326;6.550;2024-03-02T00:29:39;1.88;;;1.70;;
61915;SDS011;47868;51.326;6.550;2024-03-02T00:32:10;4.78;;;1.88;;
61915;SDS011;47868;51.326;6.550;2024-03-02T00:34:38;2.15;;;1.95;;
61915;SDS011;47868;51.326;6.550;2024-03-02T00:37:04;5.38;;;1.95;;
61915;SDS011;47868;51.326;6.550;2024-03-02T00:39:30;1.80;;;1.70;;
61915;SDS011;47868;51.326;6.550;2024-03-02T00:41:56;3.72;;;1.83;;
61915;SDS011;47868;51.326;6.550;2024-03-02T00:44:23;2.63;;;1.75;;
61915;SDS011;47868;51.326;6.550;2024-03-02T00:46:59;2.13;;;1.92;;
61915;SDS011;47868;51.326;6.550;2024-03-02T00:49:25;2.83;;;2.00;;
61915;SDS011;47868;51.326;6.550;2024-03-02T00:51:53;2.33;;;2.10;;
61915;SDS011;47868;51.326;6.550;2024-03-02T00:54:23;2.05;;;1.85;;
61915;SDS011;47868;51.326;6.550;2024-03-02T00:56:51;2.80;;;1.90;;
61915;SDS011;47868;51.326;6.550;2024-03-02T00:59:17;2.10;;;1.90;;
61915;SDS011;47868;51.326;6.550;2024-03-02T01:01:43;2.80;;;1.77;;
61915;SDS011;47868;51.326;6.550;2024-03-02T01:04:09;6.60;;;1.85;;
61915;SDS011;47868;51.326;6.550;2024-03-02T01:06:36;3.45;;;1.80;;
61915;SDS011;47868;51.326;6.550;2024-03-02T01:09:02;2.10;;;1.80;;
61915;SDS011;47868;51.326;6.550;2024-03-02T01:11:28;2.95;;;2.58;;
61915;SDS011;47868;51.326;6.550;2024-03-02T01:13:55;3.47;;;2.30;;
61915;SDS011;47868;51.326;6.550;2024-03-02T01:16:21;4.28;;;2.53;;
61915;SDS011;47868;51.326;6.550;2024-03-02T01:18:47;4.30;;;2.72;;
61915;SDS011;47868;51.326;6.550;2024-03-02T01:21:14;4.18;;;2.17;;
61915;SDS011;47868;51.326;6.550;2024-03-02T01:23:40;2.70;;;2.25;;
61915;SDS011;47868;51.326;6.550;2024-03-02T01:26:06;3.85;;;1.92;;
61915;SDS011;47868;51.326;6.550;2024-03-02T01:28:32;2.78;;;2.20;;
61915;SDS011;47868;51.326;6.550;2024-03-02T01:30:58;2.55;;;2.17;;
61915;SDS011;47868;51.326;6.550;2024-03-02T01:33:24;6.07;;;2.47;;
61915;SDS011;47868;51.326;6.550;2024-03-02T01:35:50;2.55;;;2.35;;
61915;SDS011;47868;51.326;6.550;2024-03-02T01:38:16;3.45;;;2.17;;
61915;SDS011;47868;51.326;6.550;2024-03-02T01:40:42;2.85;;;2.30;;
61915;SDS011;47868;51.326;6.550;2024-03-02T01:43:09;3.75;;;2.05;;
61915;SDS011;47868;51.326;6.550;2024-03-02T01:45:35;4.63;;;2.22;;
61915;SDS011;47868;51.326;6.550;2024-03-02T01:48:02;4.38;;;2.33;;
61915;SDS011;47868;51.326;6.550;2024-03-02T01:50:29;2.20;;;2.00;;
61915;SDS011;47868;51.326;6.550;2024-03-02T01:52:56;4.22;;;2.30;;
61915;SDS011;47868;51.326;6.550;2024-03-02T01:55:22;2.72;;;1.90;;
61915;SDS011;47868;51.326;6.550;2024-03-02T01:57:48;3.40;;;1.90;;
61915;SDS011;47868;51.326;6.550;2024-03-02T02:00:22;4.05;;;2.17;;
61915;SDS011;47868;51.326;6.550;2024-03-02T02:02:51;3.00;;;2.13;;
61915;SDS011;47868;51.326;6.550;2024-03-02T02:05:17;3.47;;;2.40;;
61915;SDS011;47868;51.326;6.550;2024-03-02T02:07:43;2.45;;;2.25;;
61915;SDS011;47868;51.326;6.550;2024-03-02T02:10:10;2.78;;;2.20;;
61915;SDS011;47868;51.326;6.550;2024-03-02T02:12:36;2.30;;;2.00;;
61915;SDS011;47868;51.326;6.550;2024-03-02T02:15:03;1.98;;;1.88;;
61915;SDS011;47868;51.326;6.550;2024-03-02T02:17:29;3.15;;;2.35;;
61915;SDS011;47868;51.326;6.550;2024-03-02T02:19:55;2.65;;;2.20;;
61915;SDS011;47868;51.326;6.550;2024-03-02T02:22:21;4.03;;;2.28;;
61915;SDS011;47868;51.326;6.550;2024-03-02T02:24:47;2.65;;;2.05;;
61915;SDS011;47868;51.326;6.550;2024-03-02T02:27:13;3.17;;;2.25;;
61915;SDS011;47868;51.326;6.550;2024-03-02T02:29:40;4.93;;;2.00;;
61915;SDS011;47868;51.326;6.550;2024-03-02T02:32:07;3.00;;;2.22;;
61915;SDS011;47868;51.326;6.550;2024-03-02T02:34:33;3.45;;;2.20;;
61915;SDS011;47868;51.326;6.550;2024-03-02T02:36:59;4.00;;;1.90;;
61915;SDS011;47868;51.326;6.550;2024-03-02T02:39:25;3.13;;;2.33;;
61915;SDS011;47868;51.326;6.550;2024-03-02T02:41:52;2.38;;;1.98;;
61915;SDS011;47868;51.326;6.550;2024-03-02T02:44:18;3.58;;;2.20;;
61915;SDS011;47868;51.326;6.550;2024-03-02T02:46:44;2.60;;;2.17;;
61915;SDS011;47868;51.326;6.550;2024-03-02T02:49:10;4.88;;;2.47;;
61915;SDS011;47868;51.326;6.550;2024-03-02T02:51:36;3.35;;;2.67;;
61915;SDS011;47868;51.326;6.550;2024-03-02T02:54:02;2.20;;;2.00;;
61915;SDS011;47868;51.326;6.550;2024-03-02T02:56:28;3.13;;;2.35;;
61915;SDS011;47868;51.326;6.550;2024-03-02T02:58:54;3.70;;;2.35;;
61915;SDS011;47868;51.326;6.550;2024-03-02T03:01:20;2.83;;;2.17;;
61915;SDS011;47868;51.326;6.550;2024-03-02T03:03:46;3.80;;;2.35;;
61915;SDS011;47868;51.326;6.550;2024-03-02T03:06:12;4.30;;;2.70;;
61915;SDS011;47868;51.326;6.550;2024-03-02T03:08:38;3.95;;;2.53;;
61915;SDS011;47868;51.326;6.550;2024-03-02T03:11:04;4.50;;;2.35;;
61915;SDS011;47868;51.326;6.550;2024-03-02T03:13:31;4.18;;;2.10;;
61915;SDS011;47868;51.326;6.550;2024-03-02T03:15:57;4.15;;;2.03;;
61915;SDS011;47868;51.326;6.550;2024-03-02T03:18:23;4.25;;;2.00;;
61915;SDS011;47868;51.326;6.550;2024-03-02T03:20:49;2.17;;;1.48;;
61915;SDS011;47868;51.326;6.550;2024-03-02T03:23:16;3.97;;;1.70;;
61915;SDS011;47868;51.326;6.550;2024-03-02T03:25:42;1.67;;;1.33;;
61915;SDS011;47868;51.326;6.550;2024-03-02T03:28:08;1.98;;;1.40;;
61915;SDS011;47868;51.326;6.550;2024-03-02T03:30:36;2.33;;;1.33;;
61915;SDS011;47868;51.326;6.550;2024-03-02T03:33:03;1.63;;;1.35;;
61915;SDS011;47868;51.326;6.550;2024-03-02T03:35:30;0.80;;;0.80;;
61915;SDS011;47868;51.326;6.550;2024-03-02T03:37:56;0.95;;;0.93;;
61915;SDS011;47868;51.326;6.550;2024-03-02T03:40:23;1.08;;;1.00;;
61915;SDS011;47868;51.326;6.550;2024-03-02T03:42:49;1.05;;;0.85;;
61915;SDS011;47868;51.326;6.550;2024-03-02T03:45:15;1.13;;;0.73;;
61915;SDS011;47868;51.326;6.550;2024-03-02T03:47:41;1.00;;;1.00;;
61915;SDS011;47868;51.326;6.550;2024-03-02T03:50:08;1.45;;;1.00;;
61915;SDS011;47868;51.326;6.550;2024-03-02T03:52:34;2.03;;;0.90;;
61915;SDS011;47868;51.326;6.550;2024-03-02T03:55:00;0.70;;;0.70;;
61915;SDS011;47868;51.326;6.550;2024-03-02T03:57:26;1.10;;;1.00;;
61915;SDS011;47868;51.326;6.550;2024-03-02T03:59:52;0.93;;;0.80;;
61915;SDS011;47868;51.326;6.550;2024-03-02T04:02:19;0.80;;;0.80;;
61915;SDS011;47868;51.326;6.550;2024-03-02T04:04:45;0.98;;;0.98;;
61915;SDS011;47868;51.326;6.550;2024-03-02T04:07:11;1.10;;;0.98;;
61915;SDS011;47868;51.326;6.550;2024-03-02T04:09:37;0.80;;;0.80;;
61915;SDS011;47868;51.326;6.550;2024-03-02T04:12:03;0.98;;;0.70;;
61915;SDS011;47868;51.326;6.550;2024-03-02T04:14:29;1.63;;;0.90;;
61915;SDS011;47868;51.326;6.550;2024-03-02T04:16:55;2.38;;;1.10;;
61915;SDS011;47868;51.326;6.550;2024-03-02T04:19:21;0.85;;;0.85;;
61915;SDS011;47868;51.326;6.550;2024-03-02T04:21:47;0.93;;;0.93;;
61915;SDS011;47868;51.326;6.550;2024-03-02T04:24:13;1.70;;;0.95;;
61915;SDS011;47868;51.326;6.550;2024-03-02T04:26:39;1.00;;;1.00;;
61915;SDS011;47868;51.326;6.550;2024-03-02T04:29:05;1.35;;;0.90;;
61915;SDS011;47868;51.326;6.550;2024-03-02T04:31:31;1.58;;;0.95;;
61915;SDS011;47868;51.326;6.550;2024-03-02T04:33:57;1.10;;;1.00;;
61915;SDS011;47868;51.326;6.550;2024-03-02T04:36:23;2.20;;;1.30;;
61915;SDS011;47868;51.326;6.550;2024-03-02T04:38:49;1.00;;;0.98;;
61915;SDS011;47868;51.326;6.550;2024-03-02T04:41:15;0.90;;;0.90;;
61915;SDS011;47868;51.326;6.550;2024-03-02T04:43:42;3.53;;;1.42;;
61915;SDS011;47868;51.326;6.550;2024-03-02T04:46:08;2.08;;;1.00;;
61915;SDS011;47868;51.326;6.550;2024-03-02T04:48:34;2.47;;;1.42;;
61915;SDS011;47868;51.326;6.550;2024-03-02T04:51:00;1.85;;;1.25;;
61915;SDS011;47868;51.326;6.550;2024-03-02T04:53:26;2.88;;;1.08;;
61915;SDS011;47868;51.326;6.550;2024-03-02T04:55:52;1.10;;;0.90;;
61915;SDS011;47868;51.326;6.550;2024-03-02T04:58:52;2.35;;;1.20;;
61915;SDS011;47868;51.326;6.550;2024-03-02T05:01:18;2.78;;;1.17;;
61915;SDS011;47868;51.326;6.550;2024-03-02T05:03:44;1.63;;;1.33;;
61915;SDS011;47868;51.326;6.550;2024-03-02T05:06:10;1.25;;;1.15;;
61915;SDS011;47868;51.326;6.550;2024-03-02T05:08:36;1.98;;;1.40;;
61915;SDS011;47868;51.326;6.550;2024-03-02T05:11:02;1.80;;;1.15;;
61915;SDS011;47868;51.326;6.550;2024-03-02T05:13:47;1.23;;;1.10;;
61915;SDS011;47868;51.326;6.550;2024-03-02T05:16:13;1.60;;;1.20;;
61915;SDS011;47868;51.326;6.550;2024-03-02T05:18:39;1.65;;;1.55;;
61915;SDS011;47868;51.326;6.550;2024-03-02T05:21:05;2.55;;;1.17;;
61915;SDS011;47868;51.326;6.550;2024-03-02T05:23:31;1.30;;;1.20;;
61915;SDS011;47868;51.326;6.550;2024-03-02T05:25:58;4.53;;;1.35;;
61915;SDS011;47868;51.326;6.550;2024-03-02T05:28:24;1.23;;;1.23;;
61915;SDS011;47868;51.326;6.550;2024-03-02T05:30:50;1.63;;;1.40;;
61915;SDS011;47868;51.326;6.550;2024-03-02T05:33:16;2.10;;;1.35;;
61915;SDS011;47868;51.326;6.550;2024-03-02T05:35:43;3.72;;;1.50;;
61915;SDS011;47868;51.326;6.550;2024-03-02T05:38:09;1.70;;;1.40;;
61915;SDS011;47868;51.326;6.550;2024-03-02T05:40:35;2.70;;;1.42;;
61915;SDS011;47868;51.326;6.550;2024-03-02T05:43:01;2.58;;;1.80;;
61915;SDS011;47868;51.326;6.550;2024-03-02T05:45:28;2.05;;;1.77;;
61915;SDS011;47868;51.326;6.550;2024-03-02T05:47:54;2.65;;;1.90;;
61915;SDS011;47868;51.326;6.550;2024-03-02T05:50:20;2.45;;;2.25;;
61915;SDS011;47868;51.326;6.550;2024-03-02T05:52:46;2.58;;;1.80;;
61915;SDS011;47868;51.326;6.550;2024-03-02T05:55:12;4.57;;;2.10;;
61915;SDS011;47868;51.326;6.550;2024-03-02T05:57:38;5.10;;;2.30;;
61915;SDS011;47868;51.326;6.550;2024-03-02T06:00:20;5.25;;;2.08;;
61915;SDS011;47868;51.326;6.550;2024-03-02T06:02:47;4.13;;;2.35;;
61915;SDS011;47868;51.326;6.550;2024-03-02T06:05:13;2.55;;;2.35;;
61915;SDS011;47868;51.326;6.550;2024-03-02T06:07:40;5.00;;;2.45;;
61915;SDS011;47868;51.326;6.550;2024-03-02T06:10:06;2.35;;;2.00;;
61915;SDS011;47868;51.326;6.550;2024-03-02T06:12:33;2.72;;;2.50;;
61915;SDS011;47868;51.326;6.550;2024-03-02T06:15:00;3.20;;;2.10;;
61915;SDS011;47868;51.326;6.550;2024-03-02T06:17:26;3.67;;;2.33;;
61915;SDS011;47868;51.326;6.550;2024-03-02T06:19:52;2.65;;;2.08;;
61915;SDS011;47868;51.326;6.550;2024-03-02T06:22:18;2.50;;;2.10;;
61915;SDS011;47868;51.326;6.550;2024-03-02T06:24:44;3.80;;;2.40;;
61915;SDS011;47868;51.326;6.550;2024-03-02T06:27:10;3.13;;;2.40;;
61915;SDS011;47868;51.326;6.550;2024-03-02T06:29:36;2.67;;;2.47;;
61915;SDS011;47868;51.326;6.550;2024-03-02T06:32:03;4.68;;;2.28;;
61915;SDS011;47868;51.326;6.550;2024-03-02T06:34:29;5.55;;;2.38;;
61915;SDS011;47868;51.326;6.550;2024-03-02T06:36:55;5.03;;;2.28;;
61915;SDS011;47868;51.326;6.550;2024-03-02T06:39:21;2.65;;;2.45;;
61915;SDS011;47868;51.326;6.550;2024-03-02T06:41:47;3.08;;;2.78;;
61915;SDS011;47868;51.326;6.550;2024-03-02T06:44:13;3.88;;;2.90;;
61915;SDS011;47868;51.326;6.550;2024-03-02T06:46:39;3.00;;;2.38;;
61915;SDS011;47868;51.326;6.550;2024-03-02T06:49:05;3.42;;;2.95;;
61915;SDS011;47868;51.326;6.550;2024-03-02T06:51:33;4.75;;;2.38;;
61915;SDS011;47868;51.326;6.550;2024-03-02T06:54:02;4.90;;;2.60;;
61915;SDS011;47868;51.326;6.550;2024-03-02T06:56:28;4.68;;;2.50;;
61915;SDS011;47868;51.326;6.550;2024-03-02T06:58:55;4.47;;;2.85;;
61915;SDS011;47868;51.326;6.550;2024-03-02T07:01:21;3.67;;;2.45;;
61915;SDS011;47868;51.326;6.550;2024-03-02T07:03:50;2.83;;;2.17;;
61915;SDS011;47868;51.326;6.550;2024-03-02T07:06:16;2.85;;;2.42;;
61915;SDS011;47868;51.326;6.550;2024-03-02T07:08:42;2.90;;;2.25;;
61915;SDS011;47868;51.326;6.550;2024-03-02T07:11:09;2.55;;;2.28;;
61915;SDS011;47868;51.326;6.550;2024-03-02T07:13:35;3.83;;;2.45;;
61915;SDS011;47868;51.326;6.550;2024-03-02T07:16:01;5.80;;;2.33;;
61915;SDS011;47868;51.326;6.550;2024-03-02T07:18:36;2.58;;;2.15;;
61915;SDS011;47868;51.326;6.550;2024-03-02T07:21:06;6.43;;;2.35;;
61915;SDS011;47868;51.326;6.550;2024-03-02T07:23:32;5.28;;;2.38;;
61915;SDS011;47868;51.326;6.550;2024-03-02T07:25:58;2.50;;;2.13;;
61915;SDS011;47868;51.326;6.550;2024-03-02T07:28:26;5.07;;;2.38;;
61915;SDS011;47868;51.326;6.550;2024-03-02T07:31:02;3.65;;;2.65;;
61915;SDS011;47868;51.326;6.550;2024-03-02T07:33:29;4.72;;;2.35;;
61915;SDS011;47868;51.326;6.550;2024-03-02T07:35:55;5.05;;;2.58;;
61915;SDS011;47868;51.326;6.550;2024-03-02T07:38:22;5.05;;;2.42;;
61915;SDS011;47868;51.326;6.550;2024-03-02T07:40:48;2.70;;;2.33;;
61915;SDS011;47868;51.326;6.550;2024-03-02T07:43:18;3.55;;;2.55;;
61915;SDS011;47868;51.326;6.550;2024-03-02T07:45:44;4.03;;;2.33;;
61915;SDS011;47868;51.326;6.550;2024-03-02T07:48:10;3.00;;;2.70;;
61915;SDS011;47868;51.326;6.550;2024-03-02T07:50:36;3.08;;;2.30;;
61915;SDS011;47868;51.326;6.550;2024-03-02T07:53:04;3.50;;;2.55;;
61915;SDS011;47868;51.326;6.550;2024-03-02T07:55:30;4.72;;;2.80;;
61915;SDS011;47868;51.326;6.550;2024-03-02T07:57:56;2.90;;;2.40;;
61915;SDS011;47868;51.326;6.550;2024-03-02T08:00:23;3.20;;;2.90;;
61915;SDS011;47868;51.326;6.550;2024-03-02T08:02:50;4.95;;;2.67;;
61915;SDS011;47868;51.326;6.550;2024-03-02T08:05:17;2.70;;;2.50;;
61915;SDS011;47868;51.326;6.550;2024-03-02T08:07:45;3.92;;;2.70;;
61915;SDS011;47868;51.326;6.550;2024-03-02T08:10:12;5.28;;;3.55;;
61915;SDS011;47868;51.326;6.550;2024-03-02T08:12:38;3.63;;;2.97;;
61915;SDS011;47868;51.326;6.550;2024-03-02T08:15:05;7.65;;;3.03;;
61915;SDS011;47868;51.326;6.550;2024-03-02T08:17:31;4.57;;;2.85;;
61915;SDS011;47868;51.326;6.550;2024-03-02T08:19:57;3.03;;;2.75;;
61915;SDS011;47868;51.326;6.550;2024-03-02T08:22:23;4.35;;;2.40;;
61915;SDS011;47868;51.326;6.550;2024-03-02T08:24:52;3.50;;;2.63;;
61915;SDS011;47868;51.326;6.550;2024-03-02T08:27:19;3.50;;;2.70;;
61915;SDS011;47868;51.326;6.550;2024-03-02T08:29:45;5.10;;;2.50;;
61915;SDS011;47868;51.326;6.550;2024-03-02T08:32:11;2.50;;;2.30;;
61915;SDS011;47868;51.326;6.550;2024-03-02T08:34:37;2.47;;;2.20;;
61915;SDS011;47868;51.326;6.550;2024-03-02T08:37:03;2.47;;;2.20;;
61915;SDS011;47868;51.326;6.550;2024-03-02T08:39:30;4.40;;;2.53;;
61915;SDS011;47868;51.326;6.550;2024-03-02T08:41:56;4.13;;;2.53;;
61915;SDS011;47868;51.326;6.550;2024-03-02T08:44:22;4.25;;;2.47;;
61915;SDS011;47868;51.326;6.550;2024-03-02T08:46:48;2.88;;;2.47;;
61915;SDS011;47868;51.326;6.550;2024-03-02T08:49:14;3.17;;;2.67;;
61915;SDS011;47868;51.326;6.550;2024-03-02T08:51:40;3.03;;;2.72;;
61915;SDS011;47868;51.326;6.550;2024-03-02T08:54:06;2.97;;;2.47;;
61915;SDS011;47868;51.326;6.550;2024-03-02T08:56:32;4.85;;;2.50;;
61915;SDS011;47868;51.326;6.550;2024-03-02T08:58:58;3.20;;;2.30;;
61915;SDS011;47868;51.326;6.550;2024-03-02T09:01:24;3.28;;;2.25;;
61915;SDS011;47868;51.326;6.550;2024-03-02T09:03:50;3.22;;;1.83;;
61915;SDS011;47868;51.326;6.550;2024-03-02T09:06:16;2.83;;;1.88;;
61915;SDS011;47868;51.326;6.550;2024-03-02T09:08:44;3.80;;;2.38;;
61915;SDS011;47868;51.326;6.550;2024-03-02T09:11:10;3.47;;;2.13;;
61915;SDS011;47868;51.326;6.550;2024-03-02T09:13:37;2.13;;;1.85;;
61915;SDS011;47868;51.326;6.550;2024-03-02T09:16:03;1.33;;;1.20;;
61915;SDS011;47868;51.326;6.550;2024-03-02T09:18:30;3.53;;;1.98;;
61915;SDS011;47868;51.326;6.550;2024-03-02T09:20:56;2.00;;;1.60;;
61915;SDS011;47868;51.326;6.550;2024-03-02T09:23:22;2.25;;;1.63;;
61915;SDS011;47868;51.326;6.550;2024-03-02T09:25:48;4.15;;;1.70;;
61915;SDS011;47868;51.326;6.550;2024-03-02T09:28:17;1.63;;;1.42;;
61915;SDS011;47868;51.326;6.550;2024-03-02T09:30:43;3.85;;;1.90;;
61915;SDS011;47868;51.326;6.550;2024-03-02T09:33:09;6.25;;;1.73;;
61915;SDS011;47868;51.326;6.550;2024-03-02T09:35:35;2.97;;;1.48;;
61915;SDS011;47868;51.326;6.550;2024-03-02T09:38:02;1.58;;;1.48;;
61915;SDS011;47868;51.326;6.550;2024-03-02T09:40:28;4.85;;;1.52;;
61915;SDS011;47868;51.326;6.550;2024-03-02T09:42:54;3.67;;;1.58;;
61915;SDS011;47868;51.326;6.550;2024-03-02T09:45:23;1.60;;;1.50;;
61915;SDS011;47868;51.326;6.550;2024-03-02T09:47:49;1.60;;;1.50;;
61915;SDS011;47868;51.326;6.550;2024-03-02T09:50:15;3.28;;;2.08;;
61915;SDS011;47868;51.326;6.550;2024-03-02T09:52:43;2.17;;;1.50;;
61915;SDS011;47868;51.326;6.550;2024-03-02T09:55:09;1.73;;;1.50;;
61915;SDS011;47868;51.326;6.550;2024-03-02T09:57:37;2.08;;;1.52;;
61915;SDS011;47868;51.326;6.550;2024-03-02T10:00:04;1.40;;;1.30;;
61915;SDS011;47868;51.326;6.550;2024-03-02T10:02:30;1.98;;;1.30;;
61915;SDS011;47868;51.326;6.550;2024-03-02T10:04:56;1.98;;;1.50;;
61915;SDS011;47868;51.326;6.550;2024-03-02T10:07:22;2.50;;;1.40;;
61915;SDS011;47868;51.326;6.550;2024-03-02T10:09:48;1.95;;;1.27;;
61915;SDS011;47868;51.326;6.550;2024-03-02T10:12:16;2.83;;;1.60;;
61915;SDS011;47868;51.326;6.550;2024-03-02T10:14:43;5.45;;;1.60;;
61915;SDS011;47868;51.326;6.550;2024-03-02T10:17:10;1.52;;;1.35;;
61915;SDS011;47868;51.326;6.550;2024-03-02T10:19:36;3.35;;;1.50;;
61915;SDS011;47868;51.326;6.550;2024-03-02T10:22:04;2.97;;;1.52;;
61915;SDS011;47868;51.326;6.550;2024-03-02T10:27:18;3.92;;;1.35;;
61915;SDS011;47868;51.326;6.550;2024-03-02T10:29:48;4.07;;;1.20;;
61915;SDS011;47868;51.326;6.550;2024-03-02T10:32:14;4.68;;;1.23;;
61915;SDS011;47868;51.326;6.550;2024-03-02T10:34:41;1.45;;;1.35;;
61915;SDS011;47868;51.326;6.550;2024-03-02T10:37:07;3.13;;;1.35;;
61915;SDS011;47868;51.326;6.550;2024-03-02T10:39:34;3.58;;;1.10;;
61915;SDS011;47868;51.326;6.550;2024-03-02T10:42:01;2.88;;;1.38;;
61915;SDS011;47868;51.326;6.550;2024-03-02T10:44:28;2.83;;;1.50;;
61915;SDS011;47868;51.326;6.550;2024-03-02T10:46:55;3.75;;;1.63;;
61915;SDS011;47868;51.326;6.550;2024-03-02T10:49:22;3.67;;;1.00;;
61915;SDS011;47868;51.326;6.550;2024-03-02T10:51:49;2.65;;;0.90;;
61915;SDS011;47868;51.326;6.550;2024-03-02T10:54:16;6.03;;;1.02;;
61915;SDS011;47868;51.326;6.550;2024-03-02T10:56:44;4.78;;;1.20;;
61915;SDS011;47868;51.326;6.550;2024-03-02T10:59:17;2.88;;;1.60;;
61915;SDS011;47868;51.326;6.550;2024-03-02T11:01:47;4.75;;;1.70;;
61915;SDS011;47868;51.326;6.550;2024-03-02T11:04:18;1.67;;;1.48;;
61915;SDS011;47868;51.326;6.550;2024-03-02T11:06:49;1.75;;;1.20;;
61915;SDS011;47868;51.326;6.550;2024-03-02T11:09:16;1.35;;;1.00;;
61915;SDS011;47868;51.326;6.550;2024-03-02T11:11:44;2.97;;;1.30;;
61915;SDS011;47868;51.326;6.550;2024-03-02T11:14:14;2.70;;;1.23;;
61915;SDS011;47868;51.326;6.550;2024-03-02T11:16:42;1.75;;;1.33;;
61915;SDS011;47868;51.326;6.550;2024-03-02T11:19:12;1.42;;;1.10;;
61915;SDS011;47868;51.326;6.550;2024-03-02T11:21:38;1.98;;;1.27;;
61915;SDS011;47868;51.326;6.550;2024-03-02T11:26:50;1.50;;;1.38;;
61915;SDS011;47868;51.326;6.550;2024-03-02T11:32:22;2.15;;;1.17;;
61915;SDS011;47868;51.326;6.550;2024-03-02T11:34:51;3.38;;;1.25;;
61915;SDS011;47868;51.326;6.550;2024-03-02T11:37:18;4.95;;;1.33;;
61915;SDS011;47868;51.326;6.550;2024-03-02T11:39:45;1.02;;;0.95;;
61915;SDS011;47868;51.326;6.550;2024-03-02T11:42:12;2.05;;;1.20;;
61915;SDS011;47868;51.326;6.550;2024-03-02T11:44:42;2.95;;;1.27;;
61915;SDS011;47868;51.326;6.550;2024-03-02T11:47:10;2.17;;;1.15;;
61915;SDS011;47868;51.326;6.550;2024-03-02T11:52:03;1.17;;;1.00;;
61915;SDS011;47868;51.326;6.550;2024-03-02T11:54:31;4.57;;;1.30;;
61915;SDS011;47868;51.326;6.550;2024-03-02T11:57:00;4.35;;;1.23;;
61915;SDS011;47868;51.326;6.550;2024-03-02T11:59:27;2.28;;;1.20;;
61915;SDS011;47868;51.326;6.550;2024-03-02T12:01:54;2.28;;;1.30;;
61915;SDS011;47868;51.326;6.550;2024-03-02T12:04:21;1.77;;;1.17;;
61915;SDS011;47868;51.326;6.550;2024-03-02T12:06:48;3.28;;;1.38;;
61915;SDS011;47868;51.326;6.550;2024-03-02T12:09:15;2.63;;;1.35;;
61915;SDS011;47868;51.326;6.550;2024-03-02T12:11:41;2.90;;;1.58;;
61915;SDS011;47868;51.326;6.550;2024-03-02T12:14:11;3.22;;;1.23;;
61915;SDS011;47868;51.326;6.550;2024-03-02T12:16:44;1.30;;;1.00;;
61915;SDS011;47868;51.326;6.550;2024-03-02T12:19:10;2.20;;;1.08;;
61915;SDS011;47868;51.326;6.550;2024-03-02T12:21:36;3.15;;;1.20;;
61915;SDS011;47868;51.326;6.550;2024-03-02T12:24:02;2.63;;;1.00;;
61915;SDS011;47868;51.326;6.550;2024-03-02T12:26:28;1.83;;;1.10;;
61915;SDS011;47868;51.326;6.550;2024-03-02T12:28:55;2.35;;;1.38;;
61915;SDS011;47868;51.326;6.550;2024-03-02T12:31:21;1.58;;;1.10;;
61915;SDS011;47868;51.326;6.550;2024-03-02T12:33:47;2.08;;;1.33;;
61915;SDS011;47868;51.326;6.550;2024-03-02T12:36:13;3.45;;;1.40;;
61915;SDS011;47868;51.326;6.550;2024-03-02T12:38:45;4.75;;;1.00;;
61915;SDS011;47868;51.326;6.550;2024-03-02T12:41:14;2.85;;;1.42;;
61915;SDS011;47868;51.326;6.550;2024-03-02T12:43:41;3.15;;;1.40;;
61915;SDS011;47868;51.326;6.550;2024-03-02T12:46:07;3.05;;;1.35;;
61915;SDS011;47868;51.326;6.550;2024-03-02T12:48:34;2.58;;;1.27;;
61915;SDS011;47868;51.326;6.550;2024-03-02T12:51:01;2.67;;;1.10;;
61915;SDS011;47868;51.326;6.550;2024-03-02T12:53:27;4.00;;;1.60;;
61915;SDS011;47868;51.326;6.550;2024-03-02T12:55:53;3.03;;;1.42;;
61915;SDS011;47868;51.326;6.550;2024-03-02T12:58:21;1.65;;;1.35;;
61915;SDS011;47868;51.326;6.550;2024-03-02T13:00:47;2.05;;;1.20;;
61915;SDS011;47868;51.326;6.550;2024-03-02T13:03:13;3.60;;;1.13;;
61915;SDS011;47868;51.326;6.550;2024-03-02T13:05:40;1.83;;;1.10;;
61915;SDS011;47868;51.326;6.550;2024-03-02T13:08:06;3.50;;;1.30;;
61915;SDS011;47868;51.326;6.550;2024-03-02T13:10:32;2.95;;;1.25;;
61915;SDS011;47868;51.326;6.550;2024-03-02T13:12:59;2.10;;;1.33;;
61915;SDS011;47868;51.326;6.550;2024-03-02T13:15:26;2.75;;;1.20;;
61915;SDS011;47868;51.326;6.550;2024-03-02T13:17:52;2.13;;;1.25;;
61915;SDS011;47868;51.326;6.550;2024-03-02T13:20:18;3.70;;;1.30;;
61915;SDS011;47868;51.326;6.550;2024-03-02T13:22:45;2.10;;;1.23;;
61915;SDS011;47868;51.326;6.550;2024-03-02T13:25:11;3.20;;;1.40;;
61915;SDS011;47868;51.326;6.550;2024-03-02T13:27:37;1.83;;;1.20;;
61915;SDS011;47868;51.326;6.550;2024-03-02T13:30:03;1.42;;;1.17;;
61915;SDS011;47868;51.326;6.550;2024-03-02T13:32:33;3.20;;;1.65;;
61915;SDS011;47868;51.326;6.550;2024-03-02T13:34:59;3.13;;;1.50;;
61915;SDS011;47868;51.326;6.550;2024-03-02T13:37:25;3.58;;;1.40;;
61915;SDS011;47868;51.326;6.550;2024-03-02T13:39:51;1.27;;;1.15;;
61915;SDS011;47868;51.326;6.550;2024-03-02T13:42:17;1.45;;;1.20;;
61915;SDS011;47868;51.326;6.550;2024-03-02T13:44:43;1.90;;;1.33;;
61915;SDS011;47868;51.326;6.550;2024-03-02T13:47:13;1.83;;;1.52;;
61915;SDS011;47868;51.326;6.550;2024-03-02T13:49:39;1.88;;;1.40;;
61915;SDS011;47868;51.326;6.550;2024-03-02T13:52:08;2.55;;;1.33;;
61915;SDS011;47868;51.326;6.550;2024-03-02T13:54:43;3.25;;;1.45;;
61915;SDS011;47868;51.326;6.550;2024-03-02T13:57:10;1.65;;;1.55;;
61915;SDS011;47868;51.326;6.550;2024-03-02T13:59:36;2.67;;;1.77;;
61915;SDS011;47868;51.326;6.550;2024-03-02T14:02:02;2.00;;;1.58;;
61915;SDS011;47868;51.326;6.550;2024-03-02T14:04:32;2.65;;;1.60;;
61915;SDS011;47868;51.326;6.550;2024-03-02T14:06:58;1.65;;;1.52;;
61915;SDS011;47868;51.326;6.550;2024-03-02T14:09:24;1.98;;;1.63;;
61915;SDS011;47868;51.326;6.550;2024-03-02T14:11:52;2.00;;;1.30;;
61915;SDS011;47868;51.326;6.550;2024-03-02T14:14:17;2.25;;;1.60;;
61915;SDS011;47868;51.326;6.550;2024-03-02T14:16:44;1.50;;;1.40;;
61915;SDS011;47868;51.326;6.550;2024-03-02T14:19:10;2.40;;;1.55;;
61915;SDS011;47868;51.326;6.550;2024-03-02T14:21:37;1.83;;;1.50;;
61915;SDS011;47868;51.326;6.550;2024-03-02T14:24:03;3.05;;;1.55;;
61915;SDS011;47868;51.326;6.550;2024-03-02T14:26:29;1.63;;;1.52;;
61915;SDS011;47868;51.326;6.550;2024-03-02T14:28:55;2.45;;;1.50;;
61915;SDS011;47868;51.326;6.550;2024-03-02T14:31:22;2.42;;;1.83;;
61915;SDS011;47868;51.326;6.550;2024-03-02T14:33:48;4.45;;;1.25;;
61915;SDS011;47868;51.326;6.550;2024-03-02T14:36:14;1.95;;;1.30;;
61915;SDS011;47868;51.326;6.550;2024-03-02T14:38:40;2.05;;;1.85;;
61915;SDS011;47868;51.326;6.550;2024-03-02T14:41:06;1.70;;;1.35;;
61915;SDS011;47868;51.326;6.550;2024-03-02T14:43:32;1.75;;;1.50;;
61915;SDS011;47868;51.326;6.550;2024-03-02T14:45:58;2.72;;;1.65;;
61915;SDS011;47868;51.326;6.550;2024-03-02T14:48:24;2.17;;;1.25;;
61915;SDS011;47868;51.326;6.550;2024-03-02T14:50:51;1.60;;;1.45;;
61915;SDS011;47868;51.326;6.550;2024-03-02T14:53:17;1.05;;;1.05;;
61915;SDS011;47868;51.326;6.550;2024-03-02T14:55:43;1.80;;;1.30;;